logo
Search for airport 
image banner adimage banner adimage banner ad
image banner ad

HKVG - Vipingo Ridge

Located in , Kenya

ICAO - , IATA - VPG

Data provided by Airmate  

General information

Coordinates: S3°48'29" E39°47'51"
Elevation is 128 feet MSL.
 
View others Airports in Coast Province

Operational data

Special qualification required
Current time UTC:
Current local time:
Weather at : HKMO - Mombasa Moi Intl ( 33 km )
METAR: HKMO 230430Z 23005KT 9999 FEW021 BKN080 26/24 Q1011 NOSIG
TAF: TAF HKMO 222300Z 2300/2406 23005KT 9999 SCT018 BKN080 BECMG 2300/2303 -RA SCT018 BKN080 BECMG 2309/2312 20010KT BECMG 2315/2318 NSW FEW022 BKN080 BECMG 2400/2403 22005KT BKN020
View NOTAMs / SUP AIP / TFR affecting this airport [VIEW]
Communications frequencies: [VIEW]

Runways:

RWY identifierQFULength (ft)Width (ft)SurfaceLDA (ft)
0100UNK
1900UNK

Airport contact information

Address: Kenya

Satellite view of HKVG